Time;durP1;ratioP1;P1;durP2;ratioP2;P2;SDS_P1;SDS_P2;PMS_P1;PMS_P2;Temp;Humidity;BMP_temperature;BMP_pressure;BME280_temperature;BME280_humidity;BME280_pressure;Samples;Min_cycle;Max_cycle;Signal;HPM_P1;HPM_P2
2023/08/23 00:01:12;;;;;;;0.10;0.10;;;;;;;;;;5117958;28;20138;-56
2023/08/23 00:03:48;;;;;;;0.10;0.10;;;;;;;;;;5117612;28;20077;-57
2023/08/23 00:06:14;;;;;;;0.10;0.10;;;;;;;;;;5099031;28;20043;-57
2023/08/23 00:08:40;;;;;;;0.10;0.10;;;;;;;;;;5116191;28;20055;-57
2023/08/23 00:11:05;;;;;;;0.10;0.10;;;;;;;;;;5117496;28;20475;-56
2023/08/23 00:13:31;;;;;;;0.10;0.10;;;;;;;;;;5115974;28;20054;-56
2023/08/23 00:15:56;;;;;;;0.10;0.10;;;;;;;;;;5116690;28;20054;-57
2023/08/23 00:18:22;;;;;;;0.10;0.10;;;;;;;;;;5116022;28;20402;-57
2023/08/23 00:20:47;;;;;;;0.10;0.10;;;;;;;;;;5116257;28;20043;-56
2023/08/23 00:23:13;;;;;;;0.10;0.10;;;;;;;;;;5117539;28;20054;-57
2023/08/23 00:25:38;;;;;;;0.10;0.10;;;;;;;;;;5116155;28;20541;-56
2023/08/23 00:28:04;;;;;;;0.10;0.10;;;;;;;;;;5116506;28;20047;-56
2023/08/23 00:30:39;;;;;;;0.10;0.10;;;;;;;;;;5116317;28;20095;-56
2023/08/23 00:33:05;;;;;;;0.10;0.10;;;;;;;;;;5117435;28;20047;-57
2023/08/23 00:35:30;;;;;;;0.10;0.10;;;;;;;;;;5116582;27;20148;-57
2023/08/23 00:37:56;;;;;;;0.10;0.10;;;;;;;;;;5114926;28;20518;-57
2023/08/23 00:40:21;;;;;;;0.10;0.10;;;;;;;;;;5115431;28;20039;-56
2023/08/23 00:42:47;;;;;;;0.10;0.10;;;;;;;;;;5115406;28;20043;-56
2023/08/23 00:45:12;;;;;;;0.10;0.10;;;;;;;;;;5115892;28;20407;-56
2023/08/23 00:47:38;;;;;;;0.10;0.10;;;;;;;;;;5114157;28;20265;-56
2023/08/23 00:50:04;;;;;;;0.10;0.10;;;;;;;;;;5114780;28;20043;-56
2023/08/23 00:52:29;;;;;;;0.10;0.10;;;;;;;;;;5115680;28;20452;-57
2023/08/23 00:55:12;;;;;;;0.10;0.10;;;;;;;;;;5117130;28;20055;-57
2023/08/23 00:57:38;;;;;;;0.10;0.10;;;;;;;;;;5114700;28;20444;-57
2023/08/23 01:00:04;;;;;;;0.10;0.10;;;;;;;;;;5114868;28;20502;-57
2023/08/23 01:02:30;;;;;;;0.10;0.10;;;;;;;;;;5116016;28;20082;-57
2023/08/23 01:04:55;;;;;;;0.10;0.10;;;;;;;;;;5116427;28;20047;-57
2023/08/23 01:07:37;;;;;;;0.10;0.10;;;;;;;;;;5116332;28;20063;-56
2023/08/23 01:10:12;;;;;;;0.10;0.10;;;;;;;;;;5115284;27;20079;-56
2023/08/23 01:12:45;;;;;;;0.10;0.10;;;;;;;;;;5116123;28;20074;-56
2023/08/23 01:15:12;;;;;;;0.10;0.10;;;;;;;;;;5108973;28;20046;-57
2023/08/23 01:17:41;;;;;;;0.10;0.10;;;;;;;;;;5098692;28;20083;-57
2023/08/23 01:20:09;;;;;;;0.10;0.10;;;;;;;;;;5118287;28;20176;-56
2023/08/23 01:22:35;;;;;;;0.00;0.00;;;;;;;;;;5101141;28;20135;-57
2023/08/23 01:25:01;;;;;;;0.20;0.20;;;;;;;;;;5102180;28;20074;-57
2023/08/23 01:27:28;;;;;;;0.10;0.10;;;;;;;;;;5119156;28;20047;-57
2023/08/23 01:29:56;;;;;;;0.10;0.10;;;;;;;;;;5117591;28;20047;-56
2023/08/23 01:32:41;;;;;;;0.10;0.10;;;;;;;;;;5118530;28;20108;-56
2023/08/23 01:35:10;;;;;;;0.10;0.10;;;;;;;;;;5102934;28;20097;-56
2023/08/23 01:37:37;;;;;;;0.10;0.10;;;;;;;;;;5098320;28;20323;-57
2023/08/23 01:40:03;;;;;;;0.10;0.10;;;;;;;;;;5099824;28;20047;-57
2023/08/23 01:42:29;;;;;;;0.10;0.10;;;;;;;;;;5119537;28;20092;-57
2023/08/23 01:44:56;;;;;;;0.10;0.10;;;;;;;;;;5118394;28;20051;-57
2023/08/23 01:47:22;;;;;;;0.00;0.00;;;;;;;;;;5118969;28;20440;-57
2023/08/23 01:49:48;;;;;;;0.10;0.10;;;;;;;;;;5119044;28;20115;-56
2023/08/23 01:52:13;;;;;;;0.10;0.10;;;;;;;;;;5117413;28;20073;-57
2023/08/23 01:54:39;;;;;;;0.10;0.10;;;;;;;;;;5118481;28;20483;-56
2023/08/23 01:57:04;;;;;;;0.10;0.10;;;;;;;;;;5118075;28;20051;-56
2023/08/23 01:59:30;;;;;;;0.10;0.10;;;;;;;;;;5117411;28;20054;-56
2023/08/23 02:01:55;;;;;;;0.10;0.10;;;;;;;;;;5118194;28;20443;-57
2023/08/23 02:04:21;;;;;;;0.10;0.10;;;;;;;;;;5117828;28;20047;-56
2023/08/23 02:06:46;;;;;;;0.10;0.10;;;;;;;;;;5117221;27;20059;-56
2023/08/23 02:09:12;;;;;;;0.10;0.10;;;;;;;;;;5117414;28;20518;-57
2023/08/23 02:11:37;;;;;;;0.10;0.10;;;;;;;;;;5116970;28;20051;-56
2023/08/23 02:14:03;;;;;;;0.10;0.10;;;;;;;;;;5117758;28;20083;-57
2023/08/23 02:16:29;;;;;;;0.10;0.10;;;;;;;;;;5118366;28;20547;-57
2023/08/23 02:18:54;;;;;;;0.10;0.10;;;;;;;;;;5116928;28;20047;-57
2023/08/23 02:21:20;;;;;;;0.10;0.10;;;;;;;;;;5118279;27;20523;-57
2023/08/23 02:23:45;;;;;;;0.10;0.10;;;;;;;;;;5100482;28;20329;-57
2023/08/23 02:26:12;;;;;;;0.10;0.10;;;;;;;;;;5118791;28;20047;-56
2023/08/23 02:28:38;;;;;;;0.10;0.10;;;;;;;;;;5118108;27;20277;-56
2023/08/23 02:31:04;;;;;;;0.10;0.10;;;;;;;;;;5117058;28;20352;-56
2023/08/23 02:33:29;;;;;;;0.10;0.10;;;;;;;;;;5117488;28;20043;-57
2023/08/23 02:35:55;;;;;;;0.10;0.10;;;;;;;;;;5099784;28;20515;-57
2023/08/23 02:38:20;;;;;;;0.10;0.10;;;;;;;;;;5117420;28;20039;-57
2023/08/23 02:40:46;;;;;;;0.10;0.10;;;;;;;;;;5117241;28;20062;-56
2023/08/23 02:43:12;;;;;;;0.10;0.10;;;;;;;;;;5114328;28;20040;-57
2023/08/23 02:45:40;;;;;;;0.10;0.10;;;;;;;;;;5117248;28;20093;-57
2023/08/23 02:48:08;;;;;;;0.10;0.10;;;;;;;;;;5104325;28;20228;-57
2023/08/23 02:50:33;;;;;;;0.10;0.10;;;;;;;;;;5100238;28;20134;-51
2023/08/23 02:52:59;;;;;;;0.10;0.10;;;;;;;;;;5116059;28;20058;-52
2023/08/23 02:55:24;;;;;;;0.10;0.10;;;;;;;;;;5117566;28;20058;-48
2023/08/23 02:57:50;;;;;;;0.10;0.10;;;;;;;;;;5115896;28;20054;-51
2023/08/23 03:00:16;;;;;;;0.10;0.10;;;;;;;;;;5116620;28;20047;-49
2023/08/23 03:02:41;;;;;;;0.10;0.10;;;;;;;;;;5117770;28;20043;-49
2023/08/23 03:05:07;;;;;;;0.13;0.13;;;;;;;;;;5116808;28;20473;-52
2023/08/23 03:07:32;;;;;;;0.10;0.10;;;;;;;;;;5117303;28;20108;-51
2023/08/23 03:09:58;;;;;;;0.10;0.10;;;;;;;;;;5115810;27;20043;-50
2023/08/23 03:12:23;;;;;;;0.10;0.10;;;;;;;;;;5115931;28;20215;-51
2023/08/23 03:14:49;;;;;;;0.10;0.10;;;;;;;;;;5116573;28;20216;-50
2023/08/23 03:17:14;;;;;;;0.10;0.10;;;;;;;;;;5115982;28;20063;-49
2023/08/23 03:19:40;;;;;;;0.10;0.10;;;;;;;;;;5114423;28;20043;-51
2023/08/23 03:22:05;;;;;;;0.10;0.10;;;;;;;;;;5117302;28;20039;-50
2023/08/23 03:24:31;;;;;;;0.10;0.10;;;;;;;;;;5115753;28;20043;-50
2023/08/23 03:26:57;;;;;;;0.10;0.10;;;;;;;;;;5115552;28;20104;-51
2023/08/23 03:29:22;;;;;;;0.10;0.10;;;;;;;;;;5115820;28;20121;-50
2023/08/23 03:31:48;;;;;;;0.15;0.15;;;;;;;;;;5115753;28;20269;-51
2023/08/23 03:34:13;;;;;;;0.10;0.10;;;;;;;;;;5115200;28;20502;-49
2023/08/23 03:36:39;;;;;;;0.10;0.10;;;;;;;;;;5116961;28;20050;-52
2023/08/23 03:39:04;;;;;;;0.10;0.10;;;;;;;;;;5113508;27;20047;-51
2023/08/23 03:41:30;;;;;;;0.10;0.10;;;;;;;;;;5114941;28;20447;-49
2023/08/23 03:43:55;;;;;;;0.10;0.10;;;;;;;;;;5116868;28;20458;-51
2023/08/23 03:46:23;;;;;;;0.10;0.10;;;;;;;;;;5116532;28;20519;-50
2023/08/23 03:48:48;;;;;;;0.10;0.10;;;;;;;;;;5115453;27;20074;-49
2023/08/23 03:51:14;;;;;;;0.10;0.10;;;;;;;;;;5115326;28;20566;-48
2023/08/23 03:53:39;;;;;;;0.10;0.10;;;;;;;;;;5115936;28;20050;-50
2023/08/23 03:56:06;;;;;;;0.10;0.10;;;;;;;;;;5117869;28;20084;-51
2023/08/23 03:58:32;;;;;;;0.10;0.10;;;;;;;;;;5115663;27;20075;-49
2023/08/23 04:00:57;;;;;;;0.10;0.10;;;;;;;;;;5116558;28;20123;-49
2023/08/23 04:03:23;;;;;;;0.10;0.10;;;;;;;;;;5116956;28;20471;-49
2023/08/23 04:05:48;;;;;;;0.10;0.10;;;;;;;;;;5117642;28;20043;-49
2023/08/23 04:08:16;;;;;;;0.10;0.10;;;;;;;;;;5115083;28;21917;-51
2023/08/23 04:10:49;;;;;;;0.00;0.00;;;;;;;;;;5107701;28;20051;-48
2023/08/23 04:13:16;;;;;;;0.10;0.10;;;;;;;;;;5097929;28;20543;-49
2023/08/23 04:15:41;;;;;;;0.10;0.10;;;;;;;;;;5117071;28;20135;-50
2023/08/23 04:18:07;;;;;;;0.10;0.10;;;;;;;;;;5104644;28;20043;-49
2023/08/23 04:20:32;;;;;;;0.10;0.10;;;;;;;;;;5115821;28;20047;-51
2023/08/23 04:22:58;;;;;;;0.10;0.10;;;;;;;;;;5116631;28;20051;-50
2023/08/23 04:25:23;;;;;;;0.10;0.10;;;;;;;;;;5117078;28;20555;-50
2023/08/23 04:27:49;;;;;;;0.10;0.10;;;;;;;;;;5116668;28;20667;-49
2023/08/23 04:30:15;;;;;;;0.10;0.10;;;;;;;;;;5116055;28;20054;-49
2023/08/23 04:32:40;;;;;;;0.10;0.10;;;;;;;;;;5115883;28;20047;-50
2023/08/23 04:35:06;;;;;;;0.10;0.10;;;;;;;;;;5118627;27;20393;-50
2023/08/23 04:37:32;;;;;;;0.10;0.10;;;;;;;;;;5116818;27;20438;-51
2023/08/23 04:39:57;;;;;;;0.10;0.10;;;;;;;;;;5115173;28;20072;-50
2023/08/23 04:42:23;;;;;;;0.10;0.10;;;;;;;;;;5114506;28;20046;-49
2023/08/23 04:44:48;;;;;;;0.10;0.10;;;;;;;;;;5115967;28;20047;-50
2023/08/23 04:47:14;;;;;;;0.10;0.10;;;;;;;;;;5105820;28;20389;-57
2023/08/23 04:49:42;;;;;;;;;;;;;;;;;;5114641;28;20079;-57
2023/08/23 04:52:07;;;;;;;0.10;0.10;;;;;;;;;;5115889;27;19938;-58
2023/08/23 04:54:33;;;;;;;0.10;0.10;;;;;;;;;;5119134;28;20053;-57
2023/08/23 04:56:58;;;;;;;0.10;0.10;;;;;;;;;;5120609;28;20058;-57
2023/08/23 04:59:24;;;;;;;0.10;0.10;;;;;;;;;;5118792;28;20046;-56
2023/08/23 05:01:49;;;;;;;0.10;0.10;;;;;;;;;;5118782;28;20452;-57
2023/08/23 05:04:16;;;;;;;0.10;0.10;;;;;;;;;;5119696;28;20181;-57
2023/08/23 05:06:41;;;;;;;0.10;0.10;;;;;;;;;;5119419;28;20094;-56
2023/08/23 05:09:07;;;;;;;0.10;0.10;;;;;;;;;;5118698;28;20043;-56
2023/08/23 05:11:32;;;;;;;0.10;0.10;;;;;;;;;;5118899;28;20245;-56
2023/08/23 05:13:58;;;;;;;0.10;0.10;;;;;;;;;;5119491;28;20072;-57
2023/08/23 05:16:23;;;;;;;0.10;0.10;;;;;;;;;;5119301;28;20108;-57
2023/08/23 05:18:49;;;;;;;0.10;0.10;;;;;;;;;;5118712;28;20062;-57
2023/08/23 05:21:14;;;;;;;0.10;0.10;;;;;;;;;;5118160;28;20648;-57
2023/08/23 05:23:40;;;;;;;0.10;0.10;;;;;;;;;;5118394;28;20058;-57
2023/08/23 05:26:06;;;;;;;0.10;0.10;;;;;;;;;;5120438;28;20043;-56
2023/08/23 05:28:32;;;;;;;0.10;0.10;;;;;;;;;;5118868;28;20051;-56
2023/08/23 05:31:00;;;;;;;0.10;0.10;;;;;;;;;;5117914;28;20166;-57
2023/08/23 05:33:25;;;;;;;0.10;0.10;;;;;;;;;;5098621;28;20099;-57
2023/08/23 05:35:51;;;;;;;0.10;0.10;;;;;;;;;;5121777;27;20047;-57
2023/08/23 05:38:16;;;;;;;0.10;0.10;;;;;;;;;;5116259;28;20039;-57
2023/08/23 05:40:42;;;;;;;0.10;0.10;;;;;;;;;;5111816;28;20051;-57
2023/08/23 05:43:08;;;;;;;0.10;0.10;;;;;;;;;;5114782;28;20170;-57
2023/08/23 05:45:33;;;;;;;0.10;0.10;;;;;;;;;;5098783;28;20449;-57
2023/08/23 05:47:59;;;;;;;0.10;0.10;;;;;;;;;;5114521;28;20146;-57
2023/08/23 05:50:25;;;;;;;0.10;0.10;;;;;;;;;;5096379;27;20047;-57
2023/08/23 05:52:51;;;;;;;0.10;0.10;;;;;;;;;;5099380;27;20070;-57
2023/08/23 05:55:17;;;;;;;0.10;0.10;;;;;;;;;;5099283;27;20047;-57
2023/08/23 05:57:42;;;;;;;0.10;0.10;;;;;;;;;;5104784;27;20074;-56
2023/08/23 06:00:09;;;;;;;0.10;0.10;;;;;;;;;;5098401;27;20550;-56
2023/08/23 06:02:35;;;;;;;0.10;0.10;;;;;;;;;;5070884;28;20130;-57
2023/08/23 06:05:02;;;;;;;0.10;0.10;;;;;;;;;;5093601;28;20343;-55
2023/08/23 06:07:28;;;;;;;0.10;0.10;;;;;;;;;;5100087;27;20216;-60
2023/08/23 06:09:53;;;;;;;0.10;0.10;;;;;;;;;;5099164;27;20039;-61
2023/08/23 06:12:19;;;;;;;0.10;0.10;;;;;;;;;;5105664;27;20101;-59
2023/08/23 06:14:45;;;;;;;0.10;0.10;;;;;;;;;;5107261;27;20131;-60
2023/08/23 06:17:10;;;;;;;0.10;0.10;;;;;;;;;;5086646;28;20047;-52
2023/08/23 06:19:36;;;;;;;0.10;0.10;;;;;;;;;;5102831;27;20485;-55
2023/08/23 06:22:01;;;;;;;0.10;0.10;;;;;;;;;;5099249;27;20255;-53
2023/08/23 06:24:27;;;;;;;0.10;0.10;;;;;;;;;;5100837;27;20046;-54
2023/08/23 06:26:53;;;;;;;0.10;0.10;;;;;;;;;;5102385;27;20043;-54
2023/08/23 06:29:19;;;;;;;0.10;0.10;;;;;;;;;;5103835;28;20051;-54
2023/08/23 06:31:44;;;;;;;0.10;0.10;;;;;;;;;;5102233;28;20583;-54
2023/08/23 06:34:10;;;;;;;0.25;0.20;;;;;;;;;;5109342;27;20127;-54
2023/08/23 06:36:36;;;;;;;0.10;0.10;;;;;;;;;;5089667;28;20070;-54
2023/08/23 06:39:02;;;;;;;0.10;0.10;;;;;;;;;;5098403;27;21097;-55
2023/08/23 06:41:28;;;;;;;0.10;0.10;;;;;;;;;;5099057;27;20054;-54
2023/08/23 06:44:01;;;;;;;0.10;0.10;;;;;;;;;;5107650;27;20519;-53
2023/08/23 06:46:27;;;;;;;0.10;0.10;;;;;;;;;;5084119;27;20043;-55
2023/08/23 06:48:53;;;;;;;0.10;0.10;;;;;;;;;;5084685;27;20515;-54
2023/08/23 06:51:20;;;;;;;0.10;0.10;;;;;;;;;;5101695;27;20054;-54
2023/08/23 06:53:46;;;;;;;0.10;0.10;;;;;;;;;;5104448;27;20063;-55
2023/08/23 06:56:12;;;;;;;0.10;0.10;;;;;;;;;;5105545;27;20056;-54
2023/08/23 06:58:38;;;;;;;0.10;0.10;;;;;;;;;;5099924;27;20161;-54
2023/08/23 07:01:06;;;;;;;0.10;0.10;;;;;;;;;;5088291;27;20452;-53
2023/08/23 07:03:31;;;;;;;0.10;0.10;;;;;;;;;;5094325;27;20186;-54
2023/08/23 07:05:57;;;;;;;0.10;0.10;;;;;;;;;;5094416;27;20054;-54
2023/08/23 07:08:23;;;;;;;0.10;0.10;;;;;;;;;;5095048;27;22437;-53
2023/08/23 07:10:49;;;;;;;0.10;0.10;;;;;;;;;;5098511;27;20055;-55
2023/08/23 07:13:14;;;;;;;0.10;0.10;;;;;;;;;;5100710;27;20035;-53
2023/08/23 07:15:40;;;;;;;0.10;0.10;;;;;;;;;;5107553;27;20039;-63
2023/08/23 07:18:07;;;;;;;0.10;0.10;;;;;;;;;;5105085;27;20945;-61
2023/08/23 07:20:33;;;;;;;0.10;0.10;;;;;;;;;;5091708;27;20042;-51
2023/08/23 07:22:58;;;;;;;0.10;0.10;;;;;;;;;;5106514;27;20048;-52
2023/08/23 07:25:24;;;;;;;0.10;0.10;;;;;;;;;;5105528;27;20066;-52
2023/08/23 07:27:49;;;;;;;0.10;0.10;;;;;;;;;;5115964;27;20331;-50
2023/08/23 07:30:16;;;;;;;0.10;0.10;;;;;;;;;;5108564;27;20069;-53
2023/08/23 07:32:42;;;;;;;0.10;0.10;;;;;;;;;;5107883;27;20046;-53
2023/08/23 07:35:08;;;;;;;0.10;0.10;;;;;;;;;;5108989;27;20092;-54
2023/08/23 07:37:33;;;;;;;0.10;0.10;;;;;;;;;;5091138;27;20484;-52
2023/08/23 07:39:59;;;;;;;0.10;0.10;;;;;;;;;;5103420;27;20069;-52
2023/08/23 07:42:25;;;;;;;0.20;0.20;;;;;;;;;;5106539;27;20131;-50
2023/08/23 07:44:51;;;;;;;0.10;0.10;;;;;;;;;;5105616;27;20047;-51
2023/08/23 07:47:17;;;;;;;0.10;0.10;;;;;;;;;;5107737;27;20339;-51
2023/08/23 07:49:42;;;;;;;0.10;0.10;;;;;;;;;;5106538;27;20403;-50
2023/08/23 07:52:08;;;;;;;0.10;0.10;;;;;;;;;;5106672;27;20418;-51
2023/08/23 07:54:34;;;;;;;0.10;0.10;;;;;;;;;;5103484;27;20124;-53
2023/08/23 07:56:59;;;;;;;0.10;0.10;;;;;;;;;;5105538;27;20519;-51
2023/08/23 07:59:25;;;;;;;0.10;0.10;;;;;;;;;;5107977;27;20058;-49
2023/08/23 08:01:50;;;;;;;0.10;0.10;;;;;;;;;;5107776;27;20142;-49
2023/08/23 08:04:16;;;;;;;0.10;0.10;;;;;;;;;;5097515;27;20452;-52
2023/08/23 08:06:42;;;;;;;0.10;0.10;;;;;;;;;;5100337;27;20043;-51
2023/08/23 08:09:07;;;;;;;0.25;0.17;;;;;;;;;;5104161;27;20127;-51
2023/08/23 08:11:33;;;;;;;0.10;0.10;;;;;;;;;;5105940;27;20082;-54
2023/08/23 08:13:58;;;;;;;0.10;0.10;;;;;;;;;;5106170;27;20050;-54
2023/08/23 08:16:24;;;;;;;0.10;0.10;;;;;;;;;;5106139;27;20515;-51
2023/08/23 08:18:49;;;;;;;0.10;0.10;;;;;;;;;;5109335;27;20216;-53
2023/08/23 08:21:15;;;;;;;0.10;0.10;;;;;;;;;;5104707;27;20043;-52
2023/08/23 08:23:40;;;;;;;0.10;0.10;;;;;;;;;;5100266;27;20186;-51
2023/08/23 08:26:06;;;;;;;0.10;0.10;;;;;;;;;;5106664;27;20461;-51
2023/08/23 08:28:32;;;;;;;0.10;0.10;;;;;;;;;;5102709;27;20134;-53
2023/08/23 08:30:57;;;;;;;0.10;0.10;;;;;;;;;;5102670;27;20043;-51
2023/08/23 08:33:23;;;;;;;0.10;0.10;;;;;;;;;;5083883;27;20557;-50
2023/08/23 08:35:49;;;;;;;0.10;0.10;;;;;;;;;;5103620;27;20050;-53
2023/08/23 08:38:14;;;;;;;0.10;0.10;;;;;;;;;;5100087;27;20386;-53
2023/08/23 08:40:40;;;;;;;0.10;0.10;;;;;;;;;;5104942;27;20384;-54
2023/08/23 08:43:06;;;;;;;0.10;0.10;;;;;;;;;;5110152;27;20712;-52
2023/08/23 08:45:33;;;;;;;;;;;;;;;;;;5104981;27;20047;-50
2023/08/23 08:47:59;;;;;;;0.10;0.10;;;;;;;;;;5113984;27;19930;-53
2023/08/23 08:50:26;;;;;;;0.10;0.10;;;;;;;;;;5110102;27;20541;-54
2023/08/23 08:52:52;;;;;;;0.10;0.10;;;;;;;;;;5110026;27;20047;-51
2023/08/23 08:55:19;;;;;;;0.10;0.10;;;;;;;;;;5113400;27;20046;-50
2023/08/23 08:57:45;;;;;;;0.10;0.10;;;;;;;;;;5105702;27;20130;-52
2023/08/23 09:00:12;;;;;;;0.10;0.10;;;;;;;;;;5096664;27;20043;-51
2023/08/23 09:02:37;;;;;;;0.10;0.10;;;;;;;;;;5104696;28;20051;-51
2023/08/23 09:05:05;;;;;;;0.10;0.10;;;;;;;;;;5098260;28;20408;-51
2023/08/23 09:07:30;;;;;;;0.10;0.10;;;;;;;;;;5093424;27;20067;-51
2023/08/23 09:09:56;;;;;;;0.10;0.10;;;;;;;;;;5088417;28;20050;-53
2023/08/23 09:12:22;;;;;;;0.10;0.10;;;;;;;;;;5107611;27;20080;-57
2023/08/23 09:14:49;;;;;;;0.10;0.10;;;;;;;;;;5110540;27;20043;-52
2023/08/23 09:17:14;;;;;;;0.10;0.10;;;;;;;;;;5116744;28;20075;-51
2023/08/23 09:19:40;;;;;;;0.10;0.10;;;;;;;;;;5114257;27;20054;-50
2023/08/23 09:22:06;;;;;;;0.17;0.17;;;;;;;;;;5110071;27;20415;-50
2023/08/23 09:24:31;;;;;;;0.10;0.10;;;;;;;;;;5112329;27;20099;-52
2023/08/23 09:26:57;;;;;;;0.10;0.10;;;;;;;;;;5112357;27;20046;-50
2023/08/23 09:29:23;;;;;;;0.10;0.10;;;;;;;;;;5104663;27;20047;-50
2023/08/23 09:31:49;;;;;;;0.10;0.10;;;;;;;;;;5106795;27;20184;-50
2023/08/23 09:34:15;;;;;;;0.10;0.10;;;;;;;;;;5091259;28;20071;-53
2023/08/23 09:36:41;;;;;;;0.10;0.10;;;;;;;;;;5100033;28;20228;-54
2023/08/23 09:39:09;;;;;;;0.10;0.10;;;;;;;;;;5097747;27;20055;-52
2023/08/23 09:41:37;;;;;;;0.10;0.10;;;;;;;;;;5095971;27;20560;-50
2023/08/23 09:44:17;;;;;;;0.10;0.10;;;;;;;;;;5098859;27;20050;-54
2023/08/23 09:46:45;;;;;;;0.10;0.10;;;;;;;;;;5112066;27;20347;-52
2023/08/23 09:49:12;;;;;;;0.00;0.00;;;;;;;;;;5089028;27;21523;-54
2023/08/23 09:51:38;;;;;;;0.10;0.10;;;;;;;;;;5109195;28;20058;-51
2023/08/23 09:54:10;;;;;;;0.10;0.10;;;;;;;;;;5111386;27;20039;-53
2023/08/23 09:56:35;;;;;;;0.10;0.10;;;;;;;;;;5109302;27;20471;-50
2023/08/23 09:59:02;;;;;;;0.10;0.10;;;;;;;;;;5109888;27;20215;-51
2023/08/23 10:01:28;;;;;;;0.10;0.10;;;;;;;;;;5114717;27;20475;-53
2023/08/23 10:03:59;;;;;;;0.10;0.10;;;;;;;;;;5114774;27;20119;-53
2023/08/23 10:06:25;;;;;;;0.10;0.10;;;;;;;;;;5111031;27;20516;-53
2023/08/23 10:08:51;;;;;;;0.20;0.20;;;;;;;;;;5110073;27;20505;-52
2023/08/23 10:11:18;;;;;;;0.10;0.10;;;;;;;;;;5106632;27;20346;-52
2023/08/23 10:13:44;;;;;;;0.10;0.10;;;;;;;;;;5103472;27;20044;-50
2023/08/23 10:16:12;;;;;;;0.10;0.10;;;;;;;;;;5107229;28;20047;-52
2023/08/23 10:18:38;;;;;;;0.10;0.10;;;;;;;;;;5102174;27;20680;-52
2023/08/23 10:21:04;;;;;;;0.10;0.10;;;;;;;;;;5101344;27;20065;-52
2023/08/23 10:23:32;;;;;;;0.10;0.10;;;;;;;;;;5102566;27;20043;-50
2023/08/23 10:25:58;;;;;;;0.10;0.10;;;;;;;;;;5099172;27;20043;-51
2023/08/23 10:28:24;;;;;;;0.10;0.10;;;;;;;;;;5103768;27;20188;-50
2023/08/23 10:30:49;;;;;;;0.10;0.10;;;;;;;;;;5108612;27;20065;-50
2023/08/23 10:33:16;;;;;;;0.10;0.10;;;;;;;;;;5102630;27;20051;-52
2023/08/23 10:35:43;;;;;;;0.10;0.10;;;;;;;;;;5099406;27;20058;-52
2023/08/23 10:38:09;;;;;;;0.10;0.10;;;;;;;;;;5088113;27;20568;-52
2023/08/23 10:40:35;;;;;;;0.10;0.10;;;;;;;;;;5096998;27;20043;-53
2023/08/23 10:43:02;;;;;;;0.20;0.20;;;;;;;;;;5100965;27;20078;-53
2023/08/23 10:45:28;;;;;;;0.10;0.10;;;;;;;;;;5098602;27;20144;-51
2023/08/23 10:47:54;;;;;;;0.10;0.10;;;;;;;;;;5099757;27;20459;-53
2023/08/23 10:50:20;;;;;;;0.10;0.10;;;;;;;;;;5100682;27;20053;-50
2023/08/23 10:52:47;;;;;;;0.20;0.20;;;;;;;;;;5102553;27;20435;-50
2023/08/23 10:55:12;;;;;;;0.10;0.10;;;;;;;;;;5094683;27;20108;-52
2023/08/23 10:57:38;;;;;;;0.10;0.10;;;;;;;;;;5103034;27;20051;-53
2023/08/23 11:00:04;;;;;;;0.10;0.10;;;;;;;;;;5103329;27;20522;-53
2023/08/23 11:02:30;;;;;;;0.40;0.20;;;;;;;;;;5102997;27;20047;-49
2023/08/23 11:04:55;;;;;;;0.10;0.10;;;;;;;;;;5106726;27;20370;-54
2023/08/23 11:07:23;;;;;;;0.10;0.10;;;;;;;;;;5111610;27;20118;-57
2023/08/23 11:09:49;;;;;;;0.00;0.00;;;;;;;;;;5093329;28;20078;-54
2023/08/23 11:12:14;;;;;;;0.10;0.10;;;;;;;;;;5111119;28;20081;-52
2023/08/23 11:14:40;;;;;;;0.10;0.10;;;;;;;;;;5087355;27;20359;-53
2023/08/23 11:17:07;;;;;;;0.10;0.10;;;;;;;;;;5107176;27;20043;-55
2023/08/23 11:19:33;;;;;;;0.10;0.10;;;;;;;;;;5110522;28;20046;-52
2023/08/23 11:21:59;;;;;;;0.10;0.10;;;;;;;;;;5103043;27;20047;-53
2023/08/23 11:24:25;;;;;;;0.10;0.10;;;;;;;;;;5104964;28;20078;-53
2023/08/23 11:26:50;;;;;;;0.10;0.10;;;;;;;;;;5100229;27;20070;-53
2023/08/23 11:29:16;;;;;;;0.10;0.10;;;;;;;;;;5103077;28;20099;-52
2023/08/23 11:31:41;;;;;;;0.10;0.10;;;;;;;;;;5097937;27;20120;-50
2023/08/23 11:34:08;;;;;;;0.10;0.10;;;;;;;;;;5100988;27;20054;-58
2023/08/23 11:36:34;;;;;;;0.10;0.10;;;;;;;;;;5102156;27;20050;-50
2023/08/23 11:39:04;;;;;;;0.10;0.10;;;;;;;;;;5108125;27;20539;-51
2023/08/23 11:41:31;;;;;;;0.10;0.10;;;;;;;;;;5100167;27;20092;-52
2023/08/23 11:43:56;;;;;;;0.10;0.10;;;;;;;;;;5106550;27;20050;-52
2023/08/23 11:46:21;;;;;;;0.10;0.10;;;;;;;;;;5102649;27;20051;-54
2023/08/23 11:48:50;;;;;;;0.10;0.10;;;;;;;;;;5098559;27;20113;-51
2023/08/23 11:51:16;;;;;;;0.10;0.10;;;;;;;;;;5088385;27;20079;-50
2023/08/23 11:53:49;;;;;;;0.10;0.10;;;;;;;;;;5096405;27;20043;-50
2023/08/23 11:56:15;;;;;;;0.10;0.10;;;;;;;;;;5101839;27;20316;-52
2023/08/23 11:58:40;;;;;;;0.10;0.10;;;;;;;;;;5105230;27;20270;-51
2023/08/23 12:01:06;;;;;;;0.10;0.10;;;;;;;;;;5098757;27;20220;-53
2023/08/23 12:03:31;;;;;;;0.10;0.10;;;;;;;;;;5093984;27;20075;-53
2023/08/23 12:05:57;;;;;;;0.10;0.10;;;;;;;;;;5099140;27;20508;-53
2023/08/23 12:08:23;;;;;;;0.10;0.10;;;;;;;;;;5107224;27;20039;-54
2023/08/23 12:10:49;;;;;;;0.10;0.10;;;;;;;;;;5070768;28;20377;-50
2023/08/23 12:13:14;;;;;;;0.10;0.10;;;;;;;;;;5066794;28;20862;-55
2023/08/23 12:15:40;;;;;;;0.10;0.10;;;;;;;;;;5077342;28;20043;-55
2023/08/23 12:18:05;;;;;;;0.10;0.10;;;;;;;;;;5078577;28;20044;-53
2023/08/23 12:20:31;;;;;;;0.10;0.10;;;;;;;;;;5077701;28;20039;-53
2023/08/23 12:22:57;;;;;;;0.10;0.10;;;;;;;;;;5080503;28;20050;-53
2023/08/23 12:25:22;;;;;;;0.10;0.10;;;;;;;;;;5077151;28;20052;-54
2023/08/23 12:27:48;;;;;;;0.10;0.10;;;;;;;;;;5084019;28;20059;-52
2023/08/23 12:30:14;;;;;;;0.10;0.10;;;;;;;;;;5085331;28;20055;-53
2023/08/23 12:32:39;;;;;;;0.10;0.10;;;;;;;;;;5081234;28;20091;-53
2023/08/23 12:35:06;;;;;;;0.10;0.10;;;;;;;;;;5079855;28;20074;-53
2023/08/23 12:37:32;;;;;;;0.10;0.10;;;;;;;;;;5083015;28;20050;-54
2023/08/23 12:39:58;;;;;;;0.10;0.10;;;;;;;;;;5078992;28;20352;-54
2023/08/23 12:42:23;;;;;;;0.10;0.10;;;;;;;;;;5084963;28;20090;-61
2023/08/23 12:44:49;;;;;;;0.10;0.10;;;;;;;;;;5085137;28;20456;-55
2023/08/23 12:47:15;;;;;;;0.10;0.10;;;;;;;;;;5090139;28;20051;-53
2023/08/23 12:49:40;;;;;;;0.10;0.10;;;;;;;;;;5090907;28;20069;-54
2023/08/23 12:52:06;;;;;;;0.10;0.10;;;;;;;;;;5088621;28;20054;-54
2023/08/23 12:54:32;;;;;;;0.10;0.10;;;;;;;;;;5088455;28;20040;-54
2023/08/23 12:56:57;;;;;;;0.10;0.10;;;;;;;;;;5091045;28;20409;-54
2023/08/23 12:59:23;;;;;;;0.10;0.10;;;;;;;;;;5093837;28;20690;-54
2023/08/23 13:01:49;;;;;;;0.10;0.10;;;;;;;;;;5095087;28;20050;-53
2023/08/23 13:04:14;;;;;;;0.10;0.10;;;;;;;;;;5094967;28;20476;-50
2023/08/23 13:06:40;;;;;;;0.10;0.10;;;;;;;;;;5103859;28;20052;-52
2023/08/23 13:09:05;;;;;;;0.10;0.10;;;;;;;;;;5094588;28;20051;-50
2023/08/23 13:11:31;;;;;;;0.10;0.10;;;;;;;;;;5092209;28;20104;-54
2023/08/23 13:13:56;;;;;;;0.10;0.10;;;;;;;;;;5094372;28;20043;-52
2023/08/23 13:16:22;;;;;;;0.10;0.10;;;;;;;;;;5091681;28;20382;-51
2023/08/23 13:18:47;;;;;;;0.10;0.10;;;;;;;;;;5098760;28;20436;-52
2023/08/23 13:21:13;;;;;;;0.10;0.10;;;;;;;;;;5096434;28;20043;-52
2023/08/23 13:23:39;;;;;;;0.10;0.10;;;;;;;;;;5097190;28;20613;-53
2023/08/23 13:26:04;;;;;;;0.10;0.10;;;;;;;;;;5102849;28;20147;-53
2023/08/23 13:28:30;;;;;;;0.10;0.10;;;;;;;;;;5103230;28;20112;-54
2023/08/23 13:30:57;;;;;;;0.10;0.10;;;;;;;;;;5102051;28;20244;-53
2023/08/23 13:33:22;;;;;;;0.10;0.10;;;;;;;;;;5089078;28;20454;-54
2023/08/23 13:35:48;;;;;;;0.10;0.10;;;;;;;;;;5091854;28;20047;-53
2023/08/23 13:38:14;;;;;;;0.10;0.10;;;;;;;;;;5093288;28;20273;-54
2023/08/23 13:40:40;;;;;;;0.20;0.20;;;;;;;;;;5089524;28;20051;-53
2023/08/23 13:43:05;;;;;;;0.10;0.10;;;;;;;;;;5095650;28;20166;-51
2023/08/23 13:45:44;;;;;;;0.10;0.10;;;;;;;;;;5090389;28;20304;-50
2023/08/23 13:48:10;;;;;;;0.10;0.10;;;;;;;;;;5099155;28;20594;-50
2023/08/23 13:50:36;;;;;;;0.10;0.10;;;;;;;;;;5095770;28;20056;-51
2023/08/23 13:53:01;;;;;;;0.10;0.10;;;;;;;;;;5096975;28;20176;-53
2023/08/23 13:55:27;;;;;;;0.10;0.10;;;;;;;;;;5096358;28;20044;-53
2023/08/23 13:57:53;;;;;;;0.10;0.10;;;;;;;;;;5103497;28;20338;-50
2023/08/23 14:00:18;;;;;;;0.10;0.10;;;;;;;;;;5099038;28;20456;-53
2023/08/23 14:02:44;;;;;;;0.10;0.10;;;;;;;;;;5114840;28;20410;-51
2023/08/23 14:05:10;;;;;;;0.10;0.10;;;;;;;;;;5112691;28;20567;-50
2023/08/23 14:07:36;;;;;;;0.10;0.10;;;;;;;;;;5098865;28;20074;-52
2023/08/23 14:10:01;;;;;;;0.10;0.10;;;;;;;;;;5096744;28;20043;-50
2023/08/23 14:12:27;;;;;;;0.10;0.10;;;;;;;;;;5108779;28;20050;-52
2023/08/23 14:14:52;;;;;;;0.10;0.10;;;;;;;;;;5111424;28;20051;-50
2023/08/23 14:17:18;;;;;;;0.10;0.10;;;;;;;;;;5096905;28;20051;-53
2023/08/23 14:19:45;;;;;;;0.10;0.10;;;;;;;;;;5095071;28;20084;-53
2023/08/23 14:22:11;;;;;;;0.10;0.10;;;;;;;;;;5092532;28;20126;-50
2023/08/23 14:24:36;;;;;;;0.20;0.20;;;;;;;;;;5094422;28;20055;-53
2023/08/23 14:27:02;;;;;;;0.10;0.10;;;;;;;;;;5109478;28;20043;-52
2023/08/23 14:29:29;;;;;;;0.10;0.10;;;;;;;;;;5105156;28;20512;-50
2023/08/23 14:31:55;;;;;;;0.10;0.10;;;;;;;;;;5094234;28;20059;-53
2023/08/23 14:34:20;;;;;;;0.10;0.10;;;;;;;;;;5095153;28;20044;-51
2023/08/23 14:36:47;;;;;;;0.10;0.10;;;;;;;;;;5095798;28;20067;-50